LFBZ/BIQ METAR and TAF weather

Enter ICAO airport designator
Station Type Date Time Source
LFBZ METAR 2021/06/23 00:00 UTC NOAA

LFBZ 230000Z AUTO 24006KT 190V270 4500 +RA BR BKN015/// BKN021/// BKN026/// ///CB 15/14 Q1019 TEMPO TSRA BKN010 FEW020CB BKN030TCU


Station Type Date Time Source
LFBZ Decoded METAR 2021/06/23 00:00 UTC NOAA

Biarritz, France (LFBZ) 43-28N 001-32W 71M
Jun 22, 2021 - 08:00 PM EDT / 2021.06.23 0000 UTC
Wind: from the WSW (240 degrees) at 7 MPH (6 KT) (direction variable):0
Visibility: 2 mile(s):0
Sky conditions: mostly cloudy
Weather: heavy rain; mist; Cumulonimbus clouds, towering cumulus clouds observed
Temperature: 59 F (15 C)
Dew Point: 57 F (14 C)
Relative Humidity: 93%
Pressure (altimeter): 30.09 in. Hg (1019 hPa)
ob: LFBZ 230000Z AUTO 24006KT 190V270 4500 +RA BR BKN015/// BKN021/// BKN026/// ///CB 15/14 Q1019 TEMPO TSRA BKN010 FEW020CB BKN030TCU
cycle: 0

Station Type Date Time Source
LFBZ TAF 2021/06/22 18:21 UTC NOAA

TAF LFBZ 221700Z 2218/2318 25010G20KT 9999 BKN020
TEMPO 2218/2306 3000 SHRA BKN010 FEW020CB BKN030TCU PROB30
TEMPO 2218/2306 TSRA BKN025CB
BECMG 2220/2222 27008KT
BECMG 2301/2303 33010KT
TEMPO 2306/2318 4000 SHRA BKN025TCU PROB30
TEMPO 2313/2315 TSRA BKN020CB

Example: see airport list